Millenium Air

Millenium Air Since 1998



 METAR AND TAF INFORMATION
METAR FOR VOBL
ADDS - METARS form results

(0455 UTC 18 April 2021)
Data provider http://aviationweather.gov/metar/data/
 
METAR text: VOBL 180430Z 21006KT 160V270 6000 SCT012 28/19 Q1018 NOSIG
Conditions at: VOBL (BENGALURU , IN) observed 0430 UTC 18 April 2021
Temperature: 28.0°C (82°F)
Dewpoint: 19.0°C (66°F) [RH = 58%]
Pressure (altimeter): 30.06 inches Hg (1018.0 mb)
Winds: from the SSW (210 degrees) at 7 MPH (6 knots; 3.1 m/s)
Visibility: 4 miles ( 6 km)
Ceiling: at least 12,000 feet AGL
Clouds: scattered clouds at 1200 feet AGL
Weather: no significant weather observed at this time

METAR text: VOBL 180400Z 20004G15KT 160V240 6000 SCT012 27/20 Q1019 NOSIG
Conditions at: VOBL (BENGALURU , IN) observed 0400 UTC 18 April 2021
Temperature: 27.0°C (81°F)
Dewpoint: 20.0°C (68°F) [RH = 66%]
Pressure (altimeter): 30.09 inches Hg (1019.0 mb)
Winds: from the SSW (200 degrees) at 5 MPH (4 knots; 2.1 m/s)
gusting to 17 MPH (15 knots; 7.7 m/s)
Visibility: 4 miles ( 6 km)
Ceiling: at least 12,000 feet AGL
Clouds: scattered clouds at 1200 feet AGL
Weather: no significant weather observed at this time

Forecast for: VOBL (BENGALURU , IN)
Text: TAF VOBL 180200Z 1803/1812 11010KT 6000 SCT015
Forecast period: 0300 to 1200 UTC 18 April 2021
Forecast type: FROM: standard forecast or significant change
Winds: from the ESE (110 degrees) at 12 MPH (10 knots; 5.1 m/s)
Visibility: 4 miles (6 km)
Ceiling: at least 12,000 feet AGL
Clouds: scattered clouds at 1500 feet AGL
Weather: no significant weather forecast for this period
Text: TEMPO 1809/1812 SCT015 SCT020 FEW025CB
Forecast period: 0900 to 1200 UTC 18 April 2021
Forecast type: TEMPORARY: The following changes expected for less than half the time period
Visibility: missing
Ceiling: at least 12,000 feet AGL
Clouds: scattered clouds at 1500 feet AGL
scattered clouds at 2000 feet AGL
few clouds at 2500 feet AGL
Weather: no significant weather forecast for this period

 AIRPORT MAP

 RUNWAY INFORMATION
Runway 09 Runway length 13123 ft Runway width 148 ft
Runway elevation 3001 ft Runway displaced threshold 0 ft Runway heading 92
Runway 27 Runway length 13123 ft Runway width 148 ft
Runway elevation 2917 ft Runway displaced threshold 0 ft Runway heading 272

 AIRPORT FREQUENCIES
Type APP Name Frequency 121.25 MHZ
Type ATIS Name Frequency 128.675 MHZ
Type DELIVERY Name Frequency 121.82 MHZ
Type SMC Name Frequency 121.65 MHZ
Type TOWER Name Frequency 124.35 MHZ

 AIRPORT NEAR NAVIGATION AIDS